sensor_id;sensor_type;location;lat;lon;timestamp;P1;durP1;ratioP1;P2;durP2;ratioP2
19798;SDS011;10059;59.850;10.454;2022-10-30T00:00:47;6.53;;;1.20;;
19798;SDS011;10059;59.850;10.454;2022-10-30T00:03:14;3.77;;;1.50;;
19798;SDS011;10059;59.850;10.454;2022-10-30T00:05:42;4.17;;;1.30;;
19798;SDS011;10059;59.850;10.454;2022-10-30T00:08:12;3.20;;;1.10;;
19798;SDS011;10059;59.850;10.454;2022-10-30T00:10:40;2.50;;;1.20;;
19798;SDS011;10059;59.850;10.454;2022-10-30T00:13:07;5.13;;;1.23;;
19798;SDS011;10059;59.850;10.454;2022-10-30T00:15:34;2.80;;;0.97;;
19798;SDS011;10059;59.850;10.454;2022-10-30T00:18:01;3.97;;;0.90;;
19798;SDS011;10059;59.850;10.454;2022-10-30T00:20:29;2.73;;;1.00;;
19798;SDS011;10059;59.850;10.454;2022-10-30T00:22:56;2.23;;;0.87;;
19798;SDS011;10059;59.850;10.454;2022-10-30T00:25:24;4.93;;;0.80;;
19798;SDS011;10059;59.850;10.454;2022-10-30T00:27:51;2.93;;;0.90;;
19798;SDS011;10059;59.850;10.454;2022-10-30T00:30:18;5.90;;;1.00;;
19798;SDS011;10059;59.850;10.454;2022-10-30T00:32:45;1.37;;;0.90;;
19798;SDS011;10059;59.850;10.454;2022-10-30T00:35:12;1.47;;;0.90;;
19798;SDS011;10059;59.850;10.454;2022-10-30T00:37:39;2.40;;;0.87;;
19798;SDS011;10059;59.850;10.454;2022-10-30T00:40:06;3.43;;;0.80;;
19798;SDS011;10059;59.850;10.454;2022-10-30T00:42:36;1.87;;;0.90;;
19798;SDS011;10059;59.850;10.454;2022-10-30T00:45:03;2.20;;;0.70;;
19798;SDS011;10059;59.850;10.454;2022-10-30T00:47:31;3.43;;;0.80;;
19798;SDS011;10059;59.850;10.454;2022-10-30T00:50:04;3.27;;;1.00;;
19798;SDS011;10059;59.850;10.454;2022-10-30T00:52:35;4.50;;;0.83;;
19798;SDS011;10059;59.850;10.454;2022-10-30T00:55:06;3.03;;;0.70;;
19798;SDS011;10059;59.850;10.454;2022-10-30T00:57:38;1.23;;;0.57;;
19798;SDS011;10059;59.850;10.454;2022-10-30T01:00:06;2.53;;;0.70;;
19798;SDS011;10059;59.850;10.454;2022-10-30T01:02:34;1.97;;;0.90;;
19798;SDS011;10059;59.850;10.454;2022-10-30T01:05:02;3.77;;;0.80;;
19798;SDS011;10059;59.850;10.454;2022-10-30T01:07:29;3.60;;;0.90;;
19798;SDS011;10059;59.850;10.454;2022-10-30T01:09:56;2.03;;;0.67;;
19798;SDS011;10059;59.850;10.454;2022-10-30T01:12:23;3.27;;;0.60;;
19798;SDS011;10059;59.850;10.454;2022-10-30T01:14:52;1.33;;;0.80;;
19798;SDS011;10059;59.850;10.454;2022-10-30T01:17:32;1.97;;;0.70;;
19798;SDS011;10059;59.850;10.454;2022-10-30T01:20:19;2.00;;;0.60;;
19798;SDS011;10059;59.850;10.454;2022-10-30T01:22:58;1.73;;;1.03;;
19798;SDS011;10059;59.850;10.454;2022-10-30T01:25:41;1.83;;;0.80;;
19798;SDS011;10059;59.850;10.454;2022-10-30T01:28:23;3.33;;;0.60;;
19798;SDS011;10059;59.850;10.454;2022-10-30T01:31:01;4.13;;;0.73;;
19798;SDS011;10059;59.850;10.454;2022-10-30T01:33:41;4.33;;;0.90;;
19798;SDS011;10059;59.850;10.454;2022-10-30T01:36:20;1.80;;;0.70;;
19798;SDS011;10059;59.850;10.454;2022-10-30T01:38:52;2.67;;;1.00;;
19798;SDS011;10059;59.850;10.454;2022-10-30T01:41:21;5.77;;;0.93;;
19798;SDS011;10059;59.850;10.454;2022-10-30T01:43:49;2.90;;;0.80;;
19798;SDS011;10059;59.850;10.454;2022-10-30T01:46:25;1.90;;;0.70;;
19798;SDS011;10059;59.850;10.454;2022-10-30T01:52:11;3.40;;;0.70;;
19798;SDS011;10059;59.850;10.454;2022-10-30T01:54:45;2.50;;;0.53;;
19798;SDS011;10059;59.850;10.454;2022-10-30T01:57:20;3.23;;;0.70;;
19798;SDS011;10059;59.850;10.454;2022-10-30T01:59:55;1.73;;;0.70;;
19798;SDS011;10059;59.850;10.454;2022-10-30T02:02:28;2.37;;;0.70;;
19798;SDS011;10059;59.850;10.454;2022-10-30T02:04:57;2.40;;;0.60;;
19798;SDS011;10059;59.850;10.454;2022-10-30T02:07:24;1.07;;;0.60;;
19798;SDS011;10059;59.850;10.454;2022-10-30T02:09:51;1.77;;;0.70;;
19798;SDS011;10059;59.850;10.454;2022-10-30T02:12:19;0.73;;;0.60;;
19798;SDS011;10059;59.850;10.454;2022-10-30T02:14:47;3.07;;;0.80;;
19798;SDS011;10059;59.850;10.454;2022-10-30T02:17:18;5.33;;;0.77;;
19798;SDS011;10059;59.850;10.454;2022-10-30T02:19:47;1.47;;;0.77;;
19798;SDS011;10059;59.850;10.454;2022-10-30T02:22:15;3.23;;;0.70;;
19798;SDS011;10059;59.850;10.454;2022-10-30T02:24:43;1.73;;;0.70;;
19798;SDS011;10059;59.850;10.454;2022-10-30T02:27:10;1.27;;;0.73;;
19798;SDS011;10059;59.850;10.454;2022-10-30T02:29:37;1.67;;;0.80;;
19798;SDS011;10059;59.850;10.454;2022-10-30T02:32:04;2.13;;;0.73;;
19798;SDS011;10059;59.850;10.454;2022-10-30T02:34:31;1.90;;;0.83;;
19798;SDS011;10059;59.850;10.454;2022-10-30T02:36:58;1.80;;;0.80;;
19798;SDS011;10059;59.850;10.454;2022-10-30T02:39:26;4.20;;;0.80;;
19798;SDS011;10059;59.850;10.454;2022-10-30T02:41:53;3.47;;;0.70;;
19798;SDS011;10059;59.850;10.454;2022-10-30T02:44:20;3.17;;;0.90;;
19798;SDS011;10059;59.850;10.454;2022-10-30T02:46:46;3.13;;;0.80;;
19798;SDS011;10059;59.850;10.454;2022-10-30T02:49:13;3.67;;;0.80;;
19798;SDS011;10059;59.850;10.454;2022-10-30T02:51:40;6.33;;;1.00;;
19798;SDS011;10059;59.850;10.454;2022-10-30T02:54:07;2.10;;;0.87;;
19798;SDS011;10059;59.850;10.454;2022-10-30T02:56:36;3.73;;;0.90;;
19798;SDS011;10059;59.850;10.454;2022-10-30T02:59:05;4.20;;;0.80;;
19798;SDS011;10059;59.850;10.454;2022-10-30T03:01:32;1.90;;;1.03;;
19798;SDS011;10059;59.850;10.454;2022-10-30T03:03:59;2.47;;;1.20;;
19798;SDS011;10059;59.850;10.454;2022-10-30T03:06:26;1.63;;;0.83;;
19798;SDS011;10059;59.850;10.454;2022-10-30T03:08:53;3.67;;;1.03;;
19798;SDS011;10059;59.850;10.454;2022-10-30T03:11:20;3.53;;;0.90;;
19798;SDS011;10059;59.850;10.454;2022-10-30T03:13:48;3.37;;;1.27;;
19798;SDS011;10059;59.850;10.454;2022-10-30T03:16:16;4.60;;;1.87;;
19798;SDS011;10059;59.850;10.454;2022-10-30T03:18:44;4.70;;;1.50;;
19798;SDS011;10059;59.850;10.454;2022-10-30T03:21:13;3.73;;;1.03;;
19798;SDS011;10059;59.850;10.454;2022-10-30T03:23:41;3.47;;;1.53;;
19798;SDS011;10059;59.850;10.454;2022-10-30T03:26:08;2.43;;;0.90;;
19798;SDS011;10059;59.850;10.454;2022-10-30T03:28:35;7.43;;;1.47;;
19798;SDS011;10059;59.850;10.454;2022-10-30T03:31:04;1.40;;;0.80;;
19798;SDS011;10059;59.850;10.454;2022-10-30T03:33:32;2.10;;;0.90;;
19798;SDS011;10059;59.850;10.454;2022-10-30T03:36:00;3.43;;;1.20;;
19798;SDS011;10059;59.850;10.454;2022-10-30T03:38:28;1.40;;;1.00;;
19798;SDS011;10059;59.850;10.454;2022-10-30T03:40:55;1.40;;;1.00;;
19798;SDS011;10059;59.850;10.454;2022-10-30T03:43:22;4.77;;;1.10;;
19798;SDS011;10059;59.850;10.454;2022-10-30T03:45:49;5.77;;;1.10;;
19798;SDS011;10059;59.850;10.454;2022-10-30T03:48:19;5.03;;;1.30;;
19798;SDS011;10059;59.850;10.454;2022-10-30T03:50:47;3.67;;;1.30;;
19798;SDS011;10059;59.850;10.454;2022-10-30T03:53:14;3.10;;;1.07;;
19798;SDS011;10059;59.850;10.454;2022-10-30T03:55:41;2.73;;;1.07;;
19798;SDS011;10059;59.850;10.454;2022-10-30T03:58:08;6.87;;;1.33;;
19798;SDS011;10059;59.850;10.454;2022-10-30T04:00:35;3.33;;;1.10;;
19798;SDS011;10059;59.850;10.454;2022-10-30T04:03:05;4.17;;;1.13;;
19798;SDS011;10059;59.850;10.454;2022-10-30T04:05:34;3.50;;;1.97;;
19798;SDS011;10059;59.850;10.454;2022-10-30T04:08:02;4.00;;;2.17;;
19798;SDS011;10059;59.850;10.454;2022-10-30T04:10:31;3.93;;;2.07;;
19798;SDS011;10059;59.850;10.454;2022-10-30T04:12:58;3.90;;;1.97;;
19798;SDS011;10059;59.850;10.454;2022-10-30T04:15:29;5.00;;;2.10;;
19798;SDS011;10059;59.850;10.454;2022-10-30T04:17:56;3.60;;;2.03;;
19798;SDS011;10059;59.850;10.454;2022-10-30T04:20:23;4.97;;;2.13;;
19798;SDS011;10059;59.850;10.454;2022-10-30T04:22:56;5.30;;;2.00;;
19798;SDS011;10059;59.850;10.454;2022-10-30T04:25:23;3.93;;;1.77;;
19798;SDS011;10059;59.850;10.454;2022-10-30T04:27:51;2.53;;;1.60;;
19798;SDS011;10059;59.850;10.454;2022-10-30T04:30:18;3.37;;;1.37;;
19798;SDS011;10059;59.850;10.454;2022-10-30T04:32:48;2.10;;;1.30;;
19798;SDS011;10059;59.850;10.454;2022-10-30T04:35:16;3.40;;;1.40;;
19798;SDS011;10059;59.850;10.454;2022-10-30T04:37:50;3.20;;;1.73;;
19798;SDS011;10059;59.850;10.454;2022-10-30T04:40:19;4.10;;;1.70;;
19798;SDS011;10059;59.850;10.454;2022-10-30T04:42:46;2.63;;;1.50;;
19798;SDS011;10059;59.850;10.454;2022-10-30T04:45:13;3.10;;;1.43;;
19798;SDS011;10059;59.850;10.454;2022-10-30T04:47:40;6.57;;;1.80;;
19798;SDS011;10059;59.850;10.454;2022-10-30T04:50:07;4.50;;;1.30;;
19798;SDS011;10059;59.850;10.454;2022-10-30T04:52:35;2.40;;;1.40;;
19798;SDS011;10059;59.850;10.454;2022-10-30T04:55:02;3.33;;;1.30;;
19798;SDS011;10059;59.850;10.454;2022-10-30T04:57:31;5.17;;;1.30;;
19798;SDS011;10059;59.850;10.454;2022-10-30T04:59:58;2.90;;;1.40;;
19798;SDS011;10059;59.850;10.454;2022-10-30T05:02:25;8.97;;;2.77;;
19798;SDS011;10059;59.850;10.454;2022-10-30T05:04:52;4.43;;;1.10;;
19798;SDS011;10059;59.850;10.454;2022-10-30T05:07:19;6.00;;;1.67;;
19798;SDS011;10059;59.850;10.454;2022-10-30T05:09:46;5.37;;;1.50;;
19798;SDS011;10059;59.850;10.454;2022-10-30T05:12:13;2.87;;;1.60;;
19798;SDS011;10059;59.850;10.454;2022-10-30T05:14:42;5.03;;;1.70;;
19798;SDS011;10059;59.850;10.454;2022-10-30T05:17:09;4.73;;;1.97;;
19798;SDS011;10059;59.850;10.454;2022-10-30T05:19:35;8.30;;;2.97;;
19798;SDS011;10059;59.850;10.454;2022-10-30T05:22:02;3.87;;;2.37;;
19798;SDS011;10059;59.850;10.454;2022-10-30T05:24:29;6.23;;;2.20;;
19798;SDS011;10059;59.850;10.454;2022-10-30T05:26:56;8.60;;;3.03;;
19798;SDS011;10059;59.850;10.454;2022-10-30T05:29:23;2.97;;;1.93;;
19798;SDS011;10059;59.850;10.454;2022-10-30T05:31:51;5.50;;;2.30;;
19798;SDS011;10059;59.850;10.454;2022-10-30T05:34:18;21.87;;;9.00;;
19798;SDS011;10059;59.850;10.454;2022-10-30T05:36:45;7.73;;;2.67;;
19798;SDS011;10059;59.850;10.454;2022-10-30T05:39:12;8.03;;;3.47;;
19798;SDS011;10059;59.850;10.454;2022-10-30T05:41:39;6.37;;;3.33;;
19798;SDS011;10059;59.850;10.454;2022-10-30T05:44:06;2.90;;;1.50;;
19798;SDS011;10059;59.850;10.454;2022-10-30T05:46:33;1.93;;;1.30;;
19798;SDS011;10059;59.850;10.454;2022-10-30T05:49:01;6.20;;;3.27;;
19798;SDS011;10059;59.850;10.454;2022-10-30T05:51:28;5.27;;;1.40;;
19798;SDS011;10059;59.850;10.454;2022-10-30T05:53:55;3.33;;;1.37;;
19798;SDS011;10059;59.850;10.454;2022-10-30T05:56:22;3.67;;;1.30;;
19798;SDS011;10059;59.850;10.454;2022-10-30T05:58:49;4.73;;;1.20;;
19798;SDS011;10059;59.850;10.454;2022-10-30T06:01:16;5.93;;;1.33;;
19798;SDS011;10059;59.850;10.454;2022-10-30T06:03:43;2.07;;;1.37;;
19798;SDS011;10059;59.850;10.454;2022-10-30T06:06:11;4.13;;;1.63;;
19798;SDS011;10059;59.850;10.454;2022-10-30T06:08:38;5.27;;;1.30;;
19798;SDS011;10059;59.850;10.454;2022-10-30T06:11:05;6.13;;;1.43;;
19798;SDS011;10059;59.850;10.454;2022-10-30T06:13:32;4.30;;;2.83;;
19798;SDS011;10059;59.850;10.454;2022-10-30T06:15:59;4.03;;;1.90;;
19798;SDS011;10059;59.850;10.454;2022-10-30T06:18:26;2.90;;;1.50;;
19798;SDS011;10059;59.850;10.454;2022-10-30T06:20:53;4.17;;;1.10;;
19798;SDS011;10059;59.850;10.454;2022-10-30T06:23:21;1.43;;;1.20;;
19798;SDS011;10059;59.850;10.454;2022-10-30T06:25:48;3.90;;;1.50;;
19798;SDS011;10059;59.850;10.454;2022-10-30T06:28:15;5.73;;;1.40;;
19798;SDS011;10059;59.850;10.454;2022-10-30T06:30:42;2.63;;;1.30;;
19798;SDS011;10059;59.850;10.454;2022-10-30T06:33:09;8.93;;;1.80;;
19798;SDS011;10059;59.850;10.454;2022-10-30T06:35:36;4.80;;;1.97;;
19798;SDS011;10059;59.850;10.454;2022-10-30T06:38:03;5.03;;;1.83;;
19798;SDS011;10059;59.850;10.454;2022-10-30T06:40:32;4.57;;;1.70;;
19798;SDS011;10059;59.850;10.454;2022-10-30T06:42:59;3.90;;;2.23;;
19798;SDS011;10059;59.850;10.454;2022-10-30T06:45:26;4.17;;;1.90;;
19798;SDS011;10059;59.850;10.454;2022-10-30T06:47:53;2.40;;;1.90;;
19798;SDS011;10059;59.850;10.454;2022-10-30T06:50:20;3.17;;;1.90;;
19798;SDS011;10059;59.850;10.454;2022-10-30T06:52:48;14.47;;;5.50;;
19798;SDS011;10059;59.850;10.454;2022-10-30T06:55:15;4.07;;;2.50;;
19798;SDS011;10059;59.850;10.454;2022-10-30T06:57:44;3.70;;;2.33;;
19798;SDS011;10059;59.850;10.454;2022-10-30T07:00:11;8.40;;;2.90;;
19798;SDS011;10059;59.850;10.454;2022-10-30T07:02:38;64.43;;;17.87;;
19798;SDS011;10059;59.850;10.454;2022-10-30T07:05:05;10.33;;;3.03;;
19798;SDS011;10059;59.850;10.454;2022-10-30T07:07:33;4.30;;;1.73;;
19798;SDS011;10059;59.850;10.454;2022-10-30T07:10:00;3.87;;;1.93;;
19798;SDS011;10059;59.850;10.454;2022-10-30T07:12:27;4.67;;;1.60;;
19798;SDS011;10059;59.850;10.454;2022-10-30T07:14:55;15.50;;;5.13;;
19798;SDS011;10059;59.850;10.454;2022-10-30T07:17:22;3.97;;;1.80;;
19798;SDS011;10059;59.850;10.454;2022-10-30T07:19:49;4.70;;;1.53;;
19798;SDS011;10059;59.850;10.454;2022-10-30T07:22:15;6.60;;;1.80;;
19798;SDS011;10059;59.850;10.454;2022-10-30T07:24:42;5.57;;;2.87;;
19798;SDS011;10059;59.850;10.454;2022-10-30T07:27:09;4.13;;;2.00;;
19798;SDS011;10059;59.850;10.454;2022-10-30T07:29:36;9.33;;;3.43;;
19798;SDS011;10059;59.850;10.454;2022-10-30T07:32:04;9.07;;;4.57;;
19798;SDS011;10059;59.850;10.454;2022-10-30T07:34:31;5.00;;;2.80;;
19798;SDS011;10059;59.850;10.454;2022-10-30T07:36:58;5.53;;;3.47;;
19798;SDS011;10059;59.850;10.454;2022-10-30T07:39:25;6.77;;;3.77;;
19798;SDS011;10059;59.850;10.454;2022-10-30T07:41:52;27.30;;;17.20;;
19798;SDS011;10059;59.850;10.454;2022-10-30T07:44:20;28.87;;;18.63;;
19798;SDS011;10059;59.850;10.454;2022-10-30T07:46:47;13.43;;;7.73;;
19798;SDS011;10059;59.850;10.454;2022-10-30T07:49:15;13.83;;;8.23;;
19798;SDS011;10059;59.850;10.454;2022-10-30T07:51:42;4.53;;;2.30;;
19798;SDS011;10059;59.850;10.454;2022-10-30T07:54:09;25.90;;;17.60;;
19798;SDS011;10059;59.850;10.454;2022-10-30T07:56:36;11.83;;;7.33;;
19798;SDS011;10059;59.850;10.454;2022-10-30T07:59:03;15.77;;;10.90;;
19798;SDS011;10059;59.850;10.454;2022-10-30T08:01:30;14.90;;;9.03;;
19798;SDS011;10059;59.850;10.454;2022-10-30T08:03:56;8.93;;;4.97;;
19798;SDS011;10059;59.850;10.454;2022-10-30T08:06:25;3.33;;;2.20;;
19798;SDS011;10059;59.850;10.454;2022-10-30T08:08:52;5.37;;;2.50;;
19798;SDS011;10059;59.850;10.454;2022-10-30T08:11:18;7.10;;;2.97;;
19798;SDS011;10059;59.850;10.454;2022-10-30T08:13:45;6.57;;;3.57;;
19798;SDS011;10059;59.850;10.454;2022-10-30T08:16:12;7.87;;;3.00;;
19798;SDS011;10059;59.850;10.454;2022-10-30T08:18:41;7.15;;;4.18;;
19798;SDS011;10059;59.850;10.454;2022-10-30T08:21:08;18.50;;;10.00;;
19798;SDS011;10059;59.850;10.454;2022-10-30T08:23:36;16.67;;;9.53;;
19798;SDS011;10059;59.850;10.454;2022-10-30T08:26:03;16.20;;;9.77;;
19798;SDS011;10059;59.850;10.454;2022-10-30T08:28:31;7.77;;;4.60;;
19798;SDS011;10059;59.850;10.454;2022-10-30T08:30:58;5.93;;;3.27;;
19798;SDS011;10059;59.850;10.454;2022-10-30T08:33:26;8.40;;;4.60;;
19798;SDS011;10059;59.850;10.454;2022-10-30T08:35:54;14.17;;;8.10;;
19798;SDS011;10059;59.850;10.454;2022-10-30T08:38:22;9.53;;;6.17;;
19798;SDS011;10059;59.850;10.454;2022-10-30T08:40:51;9.83;;;3.93;;
19798;SDS011;10059;59.850;10.454;2022-10-30T08:43:18;6.43;;;4.83;;
19798;SDS011;10059;59.850;10.454;2022-10-30T08:45:45;6.73;;;3.97;;
19798;SDS011;10059;59.850;10.454;2022-10-30T08:48:13;4.13;;;3.10;;
19798;SDS011;10059;59.850;10.454;2022-10-30T08:50:41;4.10;;;2.50;;
19798;SDS011;10059;59.850;10.454;2022-10-30T08:53:09;3.77;;;2.47;;
19798;SDS011;10059;59.850;10.454;2022-10-30T08:55:37;4.23;;;2.60;;
19798;SDS011;10059;59.850;10.454;2022-10-30T08:58:05;3.10;;;2.50;;
19798;SDS011;10059;59.850;10.454;2022-10-30T09:00:32;7.13;;;4.90;;
19798;SDS011;10059;59.850;10.454;2022-10-30T09:02:59;8.87;;;3.60;;
19798;SDS011;10059;59.850;10.454;2022-10-30T09:05:26;5.17;;;2.87;;
19798;SDS011;10059;59.850;10.454;2022-10-30T09:07:56;4.07;;;2.37;;
19798;SDS011;10059;59.850;10.454;2022-10-30T09:10:24;4.27;;;2.30;;
19798;SDS011;10059;59.850;10.454;2022-10-30T09:12:54;8.90;;;3.87;;
19798;SDS011;10059;59.850;10.454;2022-10-30T09:15:23;4.90;;;2.63;;
19798;SDS011;10059;59.850;10.454;2022-10-30T09:17:55;3.33;;;2.30;;
19798;SDS011;10059;59.850;10.454;2022-10-30T09:20:22;8.10;;;3.70;;
19798;SDS011;10059;59.850;10.454;2022-10-30T09:22:49;9.60;;;4.20;;
19798;SDS011;10059;59.850;10.454;2022-10-30T09:25:17;9.00;;;5.07;;
19798;SDS011;10059;59.850;10.454;2022-10-30T09:27:44;5.33;;;3.10;;
19798;SDS011;10059;59.850;10.454;2022-10-30T09:30:11;4.97;;;3.20;;
19798;SDS011;10059;59.850;10.454;2022-10-30T09:32:41;6.13;;;3.57;;
19798;SDS011;10059;59.850;10.454;2022-10-30T09:35:08;6.50;;;4.10;;
19798;SDS011;10059;59.850;10.454;2022-10-30T09:37:36;8.60;;;4.20;;
19798;SDS011;10059;59.850;10.454;2022-10-30T09:40:04;4.57;;;3.23;;
19798;SDS011;10059;59.850;10.454;2022-10-30T09:42:36;12.40;;;6.80;;
19798;SDS011;10059;59.850;10.454;2022-10-30T09:48:02;12.57;;;6.20;;
19798;SDS011;10059;59.850;10.454;2022-10-30T09:50:59;5.73;;;3.83;;
19798;SDS011;10059;59.850;10.454;2022-10-30T09:53:36;9.03;;;5.07;;
19798;SDS011;10059;59.850;10.454;2022-10-30T09:56:14;6.83;;;3.00;;
19798;SDS011;10059;59.850;10.454;2022-10-30T09:58:51;7.83;;;3.27;;
19798;SDS011;10059;59.850;10.454;2022-10-30T10:01:26;5.27;;;3.00;;
19798;SDS011;10059;59.850;10.454;2022-10-30T10:04:00;3.83;;;2.63;;
19798;SDS011;10059;59.850;10.454;2022-10-30T10:06:31;5.10;;;2.77;;
19798;SDS011;10059;59.850;10.454;2022-10-30T10:09:02;5.47;;;2.93;;
19798;SDS011;10059;59.850;10.454;2022-10-30T10:11:34;4.90;;;3.30;;
19798;SDS011;10059;59.850;10.454;2022-10-30T10:14:03;4.47;;;3.20;;
19798;SDS011;10059;59.850;10.454;2022-10-30T10:16:37;23.60;;;13.93;;
19798;SDS011;10059;59.850;10.454;2022-10-30T10:19:09;18.43;;;10.57;;
19798;SDS011;10059;59.850;10.454;2022-10-30T10:21:44;10.43;;;5.63;;
19798;SDS011;10059;59.850;10.454;2022-10-30T10:24:14;10.30;;;5.87;;
19798;SDS011;10059;59.850;10.454;2022-10-30T10:26:46;6.97;;;4.90;;
19798;SDS011;10059;59.850;10.454;2022-10-30T10:32:28;10.43;;;6.40;;
19798;SDS011;10059;59.850;10.454;2022-10-30T10:38:23;8.67;;;4.53;;
19798;SDS011;10059;59.850;10.454;2022-10-30T10:41:07;23.03;;;10.07;;
19798;SDS011;10059;59.850;10.454;2022-10-30T10:43:43;22.70;;;10.20;;
19798;SDS011;10059;59.850;10.454;2022-10-30T10:46:25;16.80;;;7.50;;
19798;SDS011;10059;59.850;10.454;2022-10-30T10:49:06;7.63;;;4.20;;
19798;SDS011;10059;59.850;10.454;2022-10-30T10:51:42;7.37;;;3.87;;
19798;SDS011;10059;59.850;10.454;2022-10-30T10:54:15;6.03;;;3.60;;
19798;SDS011;10059;59.850;10.454;2022-10-30T10:56:45;7.27;;;4.43;;
19798;SDS011;10059;59.850;10.454;2022-10-30T10:59:15;6.50;;;4.10;;
19798;SDS011;10059;59.850;10.454;2022-10-30T11:01:49;6.80;;;4.03;;
19798;SDS011;10059;59.850;10.454;2022-10-30T11:04:23;7.83;;;4.57;;
19798;SDS011;10059;59.850;10.454;2022-10-30T11:06:57;10.17;;;4.53;;
19798;SDS011;10059;59.850;10.454;2022-10-30T11:09:27;8.33;;;4.40;;
19798;SDS011;10059;59.850;10.454;2022-10-30T11:11:54;7.33;;;3.50;;
19798;SDS011;10059;59.850;10.454;2022-10-30T11:14:22;7.07;;;4.20;;
19798;SDS011;10059;59.850;10.454;2022-10-30T11:19:37;18.30;;;8.47;;
19798;SDS011;10059;59.850;10.454;2022-10-30T11:22:10;7.73;;;4.67;;
19798;SDS011;10059;59.850;10.454;2022-10-30T11:24:43;7.60;;;4.50;;
19798;SDS011;10059;59.850;10.454;2022-10-30T11:27:16;7.20;;;4.90;;
19798;SDS011;10059;59.850;10.454;2022-10-30T11:29:51;6.80;;;4.00;;
19798;SDS011;10059;59.850;10.454;2022-10-30T11:32:20;7.40;;;4.07;;
19798;SDS011;10059;59.850;10.454;2022-10-30T11:35:01;6.60;;;3.90;;
19798;SDS011;10059;59.850;10.454;2022-10-30T11:37:38;9.37;;;3.83;;
19798;SDS011;10059;59.850;10.454;2022-10-30T11:40:06;7.63;;;3.83;;
19798;SDS011;10059;59.850;10.454;2022-10-30T11:42:43;5.47;;;3.80;;
19798;SDS011;10059;59.850;10.454;2022-10-30T11:45:13;7.80;;;4.43;;
19798;SDS011;10059;59.850;10.454;2022-10-30T11:47:42;9.57;;;5.10;;
19798;SDS011;10059;59.850;10.454;2022-10-30T11:50:14;10.10;;;5.57;;
19798;SDS011;10059;59.850;10.454;2022-10-30T11:52:45;8.23;;;4.20;;
19798;SDS011;10059;59.850;10.454;2022-10-30T11:55:15;6.57;;;3.80;;
19798;SDS011;10059;59.850;10.454;2022-10-30T11:57:46;12.50;;;4.73;;
19798;SDS011;10059;59.850;10.454;2022-10-30T12:00:17;11.30;;;4.53;;
19798;SDS011;10059;59.850;10.454;2022-10-30T12:02:47;6.43;;;3.97;;
19798;SDS011;10059;59.850;10.454;2022-10-30T12:05:30;6.40;;;2.97;;
19798;SDS011;10059;59.850;10.454;2022-10-30T12:08:18;6.60;;;3.10;;
19798;SDS011;10059;59.850;10.454;2022-10-30T12:10:53;5.63;;;3.70;;
19798;SDS011;10059;59.850;10.454;2022-10-30T12:13:23;6.90;;;4.60;;
19798;SDS011;10059;59.850;10.454;2022-10-30T12:16:02;6.67;;;3.90;;
19798;SDS011;10059;59.850;10.454;2022-10-30T12:18:34;6.03;;;3.43;;
19798;SDS011;10059;59.850;10.454;2022-10-30T12:21:02;4.93;;;3.47;;
19798;SDS011;10059;59.850;10.454;2022-10-30T12:23:31;5.83;;;3.63;;
19798;SDS011;10059;59.850;10.454;2022-10-30T12:25:59;5.77;;;3.17;;
19798;SDS011;10059;59.850;10.454;2022-10-30T12:28:32;6.47;;;3.40;;
19798;SDS011;10059;59.850;10.454;2022-10-30T12:31:02;6.03;;;3.30;;
19798;SDS011;10059;59.850;10.454;2022-10-30T12:33:35;5.83;;;3.27;;
19798;SDS011;10059;59.850;10.454;2022-10-30T12:36:09;6.33;;;3.20;;
19798;SDS011;10059;59.850;10.454;2022-10-30T12:38:41;7.07;;;3.63;;
19798;SDS011;10059;59.850;10.454;2022-10-30T12:41:12;6.13;;;3.63;;
19798;SDS011;10059;59.850;10.454;2022-10-30T12:43:43;6.43;;;3.57;;
19798;SDS011;10059;59.850;10.454;2022-10-30T12:46:16;5.73;;;3.63;;
19798;SDS011;10059;59.850;10.454;2022-10-30T12:48:54;8.93;;;3.73;;
19798;SDS011;10059;59.850;10.454;2022-10-30T12:51:26;7.13;;;3.80;;
19798;SDS011;10059;59.850;10.454;2022-10-30T12:54:03;12.50;;;5.20;;
19798;SDS011;10059;59.850;10.454;2022-10-30T12:56:33;10.43;;;4.53;;
19798;SDS011;10059;59.850;10.454;2022-10-30T12:59:11;6.93;;;4.03;;
19798;SDS011;10059;59.850;10.454;2022-10-30T13:01:50;6.23;;;3.70;;
19798;SDS011;10059;59.850;10.454;2022-10-30T13:04:23;8.30;;;4.17;;
19798;SDS011;10059;59.850;10.454;2022-10-30T13:06:55;9.37;;;4.33;;
19798;SDS011;10059;59.850;10.454;2022-10-30T13:09:31;7.50;;;4.20;;
19798;SDS011;10059;59.850;10.454;2022-10-30T13:12:04;8.10;;;3.93;;
19798;SDS011;10059;59.850;10.454;2022-10-30T13:14:35;6.90;;;3.93;;
19798;SDS011;10059;59.850;10.454;2022-10-30T13:17:08;13.27;;;4.60;;
19798;SDS011;10059;59.850;10.454;2022-10-30T13:19:37;12.37;;;6.00;;
19798;SDS011;10059;59.850;10.454;2022-10-30T13:22:06;11.83;;;5.97;;
19798;SDS011;10059;59.850;10.454;2022-10-30T13:24:43;11.47;;;5.27;;
19798;SDS011;10059;59.850;10.454;2022-10-30T13:27:15;10.60;;;5.17;;
19798;SDS011;10059;59.850;10.454;2022-10-30T13:29:50;12.40;;;5.67;;
19798;SDS011;10059;59.850;10.454;2022-10-30T13:32:27;10.77;;;6.30;;
19798;SDS011;10059;59.850;10.454;2022-10-30T13:35:05;11.87;;;6.73;;
19798;SDS011;10059;59.850;10.454;2022-10-30T13:37:44;25.47;;;10.80;;
19798;SDS011;10059;59.850;10.454;2022-10-30T13:40:17;21.17;;;8.95;;
19798;SDS011;10059;59.850;10.454;2022-10-30T13:42:54;9.70;;;4.87;;
19798;SDS011;10059;59.850;10.454;2022-10-30T13:45:46;12.10;;;5.70;;
19798;SDS011;10059;59.850;10.454;2022-10-30T13:48:25;15.07;;;6.23;;
19798;SDS011;10059;59.850;10.454;2022-10-30T13:51:21;15.27;;;7.03;;
19798;SDS011;10059;59.850;10.454;2022-10-30T13:54:07;11.80;;;5.50;;
19798;SDS011;10059;59.850;10.454;2022-10-30T13:56:44;9.60;;;4.60;;
19798;SDS011;10059;59.850;10.454;2022-10-30T14:02:15;8.57;;;5.10;;
19798;SDS011;10059;59.850;10.454;2022-10-30T14:04:54;15.20;;;7.73;;
19798;SDS011;10059;59.850;10.454;2022-10-30T14:07:26;16.30;;;8.33;;
19798;SDS011;10059;59.850;10.454;2022-10-30T14:10:01;13.93;;;7.47;;
19798;SDS011;10059;59.850;10.454;2022-10-30T14:12:45;13.30;;;7.73;;
19798;SDS011;10059;59.850;10.454;2022-10-30T14:15:24;15.90;;;9.77;;
19798;SDS011;10059;59.850;10.454;2022-10-30T14:24:16;19.27;;;9.30;;
19798;SDS011;10059;59.850;10.454;2022-10-30T14:26:46;18.87;;;10.50;;
19798;SDS011;10059;59.850;10.454;2022-10-30T14:32:32;21.23;;;9.30;;
19798;SDS011;10059;59.850;10.454;2022-10-30T14:35:33;14.63;;;8.80;;
19798;SDS011;10059;59.850;10.454;2022-10-30T14:38:24;14.27;;;7.70;;
19798;SDS011;10059;59.850;10.454;2022-10-30T14:41:01;18.77;;;8.13;;
19798;SDS011;10059;59.850;10.454;2022-10-30T14:43:55;18.53;;;9.37;;
19798;SDS011;10059;59.850;10.454;2022-10-30T14:46:31;27.60;;;13.50;;
19798;SDS011;10059;59.850;10.454;2022-10-30T14:49:07;52.50;;;29.47;;
19798;SDS011;10059;59.850;10.454;2022-10-30T14:51:44;43.73;;;22.83;;
19798;SDS011;10059;59.850;10.454;2022-10-30T14:54:18;28.27;;;15.70;;
19798;SDS011;10059;59.850;10.454;2022-10-30T14:56:51;21.73;;;11.87;;
19798;SDS011;10059;59.850;10.454;2022-10-30T14:59:20;30.37;;;17.33;;
19798;SDS011;10059;59.850;10.454;2022-10-30T15:01:55;15.50;;;9.23;;
19798;SDS011;10059;59.850;10.454;2022-10-30T15:04:39;14.85;;;9.40;;
19798;SDS011;10059;59.850;10.454;2022-10-30T15:07:17;11.53;;;7.97;;
19798;SDS011;10059;59.850;10.454;2022-10-30T15:09:56;13.33;;;8.20;;
19798;SDS011;10059;59.850;10.454;2022-10-30T15:15:24;25.60;;;12.80;;
19798;SDS011;10059;59.850;10.454;2022-10-30T15:17:54;17.00;;;10.23;;
19798;SDS011;10059;59.850;10.454;2022-10-30T15:20:24;30.00;;;17.57;;